createdAt,value
2022-09-23T00:00:28.419Z,96.23
2022-09-23T00:01:25.342Z,96.79
2022-09-23T00:02:22.772Z,96.97
2022-09-23T00:03:21.751Z,97.13
2022-09-23T00:04:18.857Z,97.88
2022-09-23T00:05:15.824Z,97.67
2022-09-23T00:06:19.790Z,97.85
2022-09-23T00:07:17.217Z,98.12
2022-09-23T00:08:14.210Z,98.37
2022-09-23T00:09:11.148Z,98.40
2022-09-23T00:10:08.482Z,98.13
2022-09-23T00:11:09.926Z,98.40
2022-09-23T00:12:09.211Z,98.50
2022-09-23T00:13:06.309Z,98.31
2022-09-23T00:14:03.228Z,97.56
2022-09-23T00:15:00.313Z,97.43
2022-09-23T00:15:57.226Z,97.24
2022-09-23T00:16:54.236Z,97.94
2022-09-23T00:17:54.016Z,98.04
2022-09-23T00:18:51.007Z,98.02
2022-09-23T00:19:48.496Z,97.96
2022-09-23T00:20:45.632Z,98.61
2022-09-23T00:21:42.850Z,98.68
2022-09-23T00:22:39.812Z,98.94
2022-09-23T00:23:36.992Z,98.89
2022-09-23T00:24:33.956Z,99.19
2022-09-23T00:25:30.827Z,98.64
2022-09-23T00:26:27.959Z,98.26
2022-09-23T00:27:24.821Z,98.30
2022-09-23T00:28:22.022Z,98.25
2022-09-23T00:29:19.033Z,98.76
2022-09-23T00:30:16.134Z,99.26
2022-09-23T00:31:16.034Z,98.98
2022-09-23T00:32:12.973Z,98.59
2022-09-23T00:33:10.025Z,98.47
2022-09-23T00:34:06.827Z,98.21
2022-09-23T00:35:04.309Z,98.21
2022-09-23T00:36:09.338Z,97.45
2022-09-23T00:37:06.282Z,96.86
2022-09-23T00:38:03.281Z,96.62
2022-09-23T00:39:00.220Z,96.71
2022-09-23T00:39:57.239Z,96.41
2022-09-23T00:40:54.157Z,95.87
2022-09-23T00:41:51.107Z,95.45
2022-09-23T00:42:49.350Z,95.88
2022-09-23T00:43:59.854Z,95.05
2022-09-23T00:44:58.209Z,94.52
2022-09-23T00:45:55.335Z,94.85
2022-09-23T00:46:52.357Z,94.71
2022-09-23T00:48:02.011Z,93.68
2022-09-23T00:49:03.255Z,93.67
2022-09-23T00:50:02.835Z,93.46
2022-09-23T00:50:59.770Z,93.02
2022-09-23T00:52:00.714Z,92.68
2022-09-23T00:52:59.509Z,92.57
2022-09-23T00:53:58.792Z,92.33
2022-09-23T00:54:56.230Z,91.44
2022-09-23T00:55:55.289Z,90.87
2022-09-23T00:56:52.487Z,90.65
2022-09-23T00:57:49.298Z,90.20
2022-09-23T00:58:46.241Z,89.71
2022-09-23T00:59:43.455Z,89.23
2022-09-23T01:00:40.541Z,89.31
2022-09-23T01:01:38.614Z,89.07
2022-09-23T01:02:37.763Z,88.48
2022-09-23T01:03:34.754Z,88.68
2022-09-23T01:04:34.948Z,88.18
2022-09-23T01:05:33.344Z,87.97
2022-09-23T01:06:30.334Z,87.78
2022-09-23T01:07:27.307Z,87.47
2022-09-23T01:08:28.789Z,87.77
2022-09-23T01:09:28.932Z,87.96
2022-09-23T01:10:25.784Z,87.80
2022-09-23T01:11:36.611Z,88.00
2022-09-23T01:12:55.005Z,87.56
2022-09-23T01:14:09.787Z,87.44
2022-09-23T01:15:37.206Z,87.07
2022-09-23T01:16:42.305Z,85.95
2022-09-23T01:18:07.496Z,85.76
2022-09-23T01:19:22.721Z,85.49
2022-09-23T01:20:31.826Z,85.33
2022-09-23T01:22:16.199Z,84.71
2022-09-23T01:23:19.062Z,84.17
2022-09-23T01:24:29.723Z,83.76
2022-09-23T01:25:45.178Z,83.53
2022-09-23T01:26:59.370Z,83.25
2022-09-23T01:28:12.630Z,83.21
2022-09-23T01:29:46.935Z,82.67
2022-09-23T01:31:08.576Z,82.36
2022-09-23T01:32:23.094Z,82.42
2022-09-23T01:33:34.955Z,82.89
2022-09-23T01:34:39.094Z,82.59
2022-09-23T01:35:53.969Z,82.51
2022-09-23T01:37:02.400Z,83.00
2022-09-23T01:38:12.184Z,83.09
2022-09-23T01:39:12.399Z,83.02
2022-09-23T01:40:21.709Z,83.25
2022-09-23T01:42:17.355Z,83.83
2022-09-23T01:43:39.298Z,84.21
2022-09-23T01:45:07.394Z,84.87
2022-09-23T01:46:07.116Z,85.82
2022-09-23T01:47:25.189Z,86.09
2022-09-23T01:48:23.795Z,86.35
2022-09-23T01:49:22.616Z,86.08
2022-09-23T01:50:58.595Z,86.06
2022-09-23T01:52:18.330Z,85.79
2022-09-23T01:53:18.989Z,85.95
2022-09-23T01:54:20.648Z,85.90
2022-09-23T01:55:22.375Z,85.44
2022-09-23T01:56:23.158Z,85.39
2022-09-23T01:57:28.942Z,85.55
2022-09-23T01:58:27.527Z,85.36
2022-09-23T01:59:35.161Z,85.08
2022-09-23T02:00:35.114Z,84.93
2022-09-23T02:01:51.017Z,84.47
2022-09-23T02:02:57.745Z,84.79
2022-09-23T02:04:01.177Z,85.21
2022-09-23T02:05:08.169Z,85.08
2022-09-23T02:06:15.553Z,85.10
2022-09-23T02:07:22.664Z,84.51
2022-09-23T02:08:47.513Z,84.57
2022-09-23T02:09:45.851Z,84.60
2022-09-23T02:10:45.780Z,84.78
2022-09-23T02:11:46.230Z,85.02
2022-09-23T02:12:45.722Z,84.80
2022-09-23T02:13:56.439Z,84.77
2022-09-23T02:15:01.359Z,84.56
2022-09-23T02:16:01.294Z,84.07
2022-09-23T02:17:01.875Z,83.88
2022-09-23T02:18:03.889Z,83.65
2022-09-23T02:19:20.083Z,84.47
2022-09-23T02:20:21.062Z,84.18
2022-09-23T02:21:20.504Z,84.93
2022-09-23T02:22:20.325Z,84.63
2022-09-23T02:23:33.110Z,85.36
2022-09-23T02:24:34.675Z,85.49
2022-09-23T02:26:07.456Z,86.13
2022-09-23T02:27:13.891Z,86.40
2022-09-23T02:28:25.694Z,86.76
2022-09-23T02:29:47.526Z,86.61
2022-09-23T02:30:50.679Z,86.14
2022-09-23T02:32:08.966Z,86.64
2022-09-23T02:33:07.224Z,85.41
2022-09-23T02:34:15.843Z,84.76
2022-09-23T02:35:33.468Z,84.09
2022-09-23T02:36:32.859Z,83.94
2022-09-23T02:37:32.579Z,83.65
2022-09-23T02:38:39.133Z,83.56
2022-09-23T02:39:53.130Z,83.49
2022-09-23T02:41:01.205Z,83.41
2022-09-23T02:42:07.688Z,83.35
2022-09-23T02:43:07.344Z,83.35
2022-09-23T02:44:09.193Z,83.33
2022-09-23T02:45:06.360Z,83.56
2022-09-23T02:46:04.259Z,83.63
2022-09-23T02:47:01.260Z,83.64
2022-09-23T02:48:07.394Z,83.67
2022-09-23T02:49:21.773Z,83.71
2022-09-23T02:50:19.355Z,83.50
2022-09-23T02:51:16.387Z,82.99
2022-09-23T02:52:13.784Z,82.05
2022-09-23T02:53:10.638Z,81.74
2022-09-23T02:54:10.730Z,80.90
2022-09-23T02:55:07.945Z,80.71
2022-09-23T02:56:16.319Z,80.48
2022-09-23T02:57:14.710Z,80.37
2022-09-23T02:58:13.093Z,80.44
2022-09-23T02:59:10.100Z,80.47
2022-09-23T03:00:07.413Z,80.29
2022-09-23T03:01:41.664Z,80.36
2022-09-23T03:03:04.105Z,80.36
2022-09-23T03:04:19.043Z,80.99
2022-09-23T03:05:30.407Z,80.91
2022-09-23T03:07:08.599Z,80.56
2022-09-23T03:08:43.136Z,80.18
2022-09-23T03:09:39.921Z,80.44
2022-09-23T03:10:44.785Z,80.62
2022-09-23T03:11:42.023Z,80.52
2022-09-23T03:12:53.090Z,80.73
2022-09-23T03:14:04.060Z,80.53
2022-09-23T03:15:08.624Z,80.95
2022-09-23T03:16:11.828Z,81.44
2022-09-23T03:17:14.617Z,82.19
2022-09-23T03:18:18.305Z,82.69
2022-09-23T03:19:25.477Z,82.36
2022-09-23T03:20:27.067Z,82.42
2022-09-23T03:21:31.256Z,82.34
2022-09-23T03:22:38.899Z,82.64
2022-09-23T03:23:36.867Z,83.02
2022-09-23T03:24:34.692Z,83.20
2022-09-23T03:25:33.383Z,83.05
2022-09-23T03:26:32.273Z,83.28
2022-09-23T03:27:32.990Z,82.54
2022-09-23T03:28:30.050Z,83.02
2022-09-23T03:29:27.045Z,83.30
2022-09-23T03:30:24.983Z,83.10
2022-09-23T03:31:21.926Z,83.40
2022-09-23T03:32:21.093Z,83.38
2022-09-23T03:33:18.581Z,83.79
2022-09-23T03:34:24.442Z,83.79
2022-09-23T03:35:22.852Z,84.58
2022-09-23T03:36:42.378Z,85.25
2022-09-23T03:37:39.093Z,85.67
2022-09-23T03:38:38.241Z,86.90
2022-09-23T03:39:42.041Z,87.74
2022-09-23T03:40:43.665Z,88.59
2022-09-23T03:41:49.449Z,89.04
2022-09-23T03:42:49.097Z,89.59
2022-09-23T03:43:46.040Z,89.55
2022-09-23T03:44:49.168Z,89.89
2022-09-23T03:45:46.250Z,90.40
2022-09-23T03:46:49.657Z,90.36
2022-09-23T03:47:46.501Z,90.46
2022-09-23T03:48:45.020Z,90.73
2022-09-23T03:49:43.886Z,91.03
2022-09-23T03:50:41.148Z,91.23
2022-09-23T03:51:42.678Z,91.38
2022-09-23T03:52:44.454Z,91.19
2022-09-23T03:53:41.418Z,91.73
2022-09-23T03:54:38.424Z,91.30
2022-09-23T03:55:35.805Z,90.71
2022-09-23T03:56:32.913Z,91.11
2022-09-23T03:57:29.880Z,90.36
2022-09-23T03:58:26.864Z,89.92
2022-09-23T03:59:24.885Z,89.59
2022-09-23T04:00:22.954Z,89.54
2022-09-23T04:01:19.971Z,88.90
2022-09-23T04:02:17.697Z,88.88
2022-09-23T04:03:16.659Z,88.35
2022-09-23T04:04:13.540Z,88.26
2022-09-23T04:05:11.055Z,88.12
2022-09-23T04:06:07.995Z,88.75
2022-09-23T04:07:04.985Z,88.49
2022-09-23T04:08:02.266Z,88.69
2022-09-23T04:08:59.480Z,88.53
2022-09-23T04:09:58.927Z,88.84
2022-09-23T04:11:00.699Z,89.38
2022-09-23T04:11:57.592Z,90.68
2022-09-23T04:12:57.437Z,91.11
2022-09-23T04:13:56.088Z,91.71
2022-09-23T04:14:53.201Z,93.27
2022-09-23T04:15:50.454Z,94.54
2022-09-23T04:16:47.675Z,94.95
2022-09-23T04:17:44.651Z,95.43
2022-09-23T04:18:41.802Z,95.90
2022-09-23T04:19:38.694Z,96.55
2022-09-23T04:20:35.944Z,97.03
2022-09-23T04:21:33.015Z,97.26
2022-09-23T04:22:29.958Z,97.89
2022-09-23T04:23:27.247Z,97.86
2022-09-23T04:24:24.203Z,98.12
2022-09-23T04:25:24.287Z,98.89
2022-09-23T04:26:21.325Z,99.14
2022-09-23T04:27:18.245Z,99.00
2022-09-23T04:28:15.134Z,98.67
2022-09-23T04:29:12.190Z,98.66
2022-09-23T04:30:09.627Z,98.96
2022-09-23T04:31:10.138Z,100.00
2022-09-23T04:32:07.227Z,100.00
2022-09-23T04:33:04.679Z,100.00
2022-09-23T04:34:01.741Z,99.87
2022-09-23T04:34:58.859Z,100.00
2022-09-23T04:35:55.757Z,100.00
2022-09-23T04:36:52.744Z,100.00
2022-09-23T04:37:50.006Z,100.00
2022-09-23T04:38:47.310Z,100.00
2022-09-23T04:39:44.677Z,100.00
2022-09-23T04:40:41.880Z,100.00
2022-09-23T04:41:39.076Z,100.00
2022-09-23T04:42:35.932Z,100.00
2022-09-23T04:43:32.940Z,100.00
2022-09-23T04:44:29.970Z,100.00
2022-09-23T04:45:27.262Z,100.00
2022-09-23T04:46:24.327Z,100.00
2022-09-23T04:47:21.284Z,100.00
2022-09-23T04:48:18.210Z,100.00
2022-09-23T04:49:15.691Z,99.12
2022-09-23T04:50:12.801Z,99.28
2022-09-23T04:51:18.380Z,98.21
2022-09-23T04:52:15.451Z,97.89
2022-09-23T04:53:12.534Z,96.48
2022-09-23T04:54:12.522Z,95.67
2022-09-23T04:55:13.061Z,94.90
2022-09-23T04:56:11.914Z,94.79
2022-09-23T04:57:11.177Z,94.37
2022-09-23T04:58:09.993Z,95.01
2022-09-23T04:59:07.604Z,94.79
2022-09-23T05:00:05.006Z,94.96
2022-09-23T05:01:24.971Z,95.01
2022-09-23T05:02:22.049Z,95.44
2022-09-23T05:03:18.849Z,95.30
2022-09-23T05:04:15.727Z,95.38
2022-09-23T05:05:13.023Z,95.09
2022-09-23T05:06:11.089Z,95.09
2022-09-23T05:07:08.123Z,95.15
2022-09-23T05:08:05.114Z,94.88
2022-09-23T05:09:02.222Z,94.93
2022-09-23T05:09:59.289Z,94.35
2022-09-23T05:10:59.919Z,93.48
2022-09-23T05:11:56.831Z,93.51
2022-09-23T05:12:57.205Z,93.53
2022-09-23T05:13:54.633Z,93.59
2022-09-23T05:14:51.645Z,93.62
2022-09-23T05:15:48.646Z,93.63
2022-09-23T05:16:46.591Z,93.65
2022-09-23T05:17:46.268Z,93.82
2022-09-23T05:18:46.660Z,94.63
2022-09-23T05:19:43.525Z,95.01
2022-09-23T05:20:40.436Z,94.93
2022-09-23T05:21:38.645Z,94.95
2022-09-23T05:22:35.498Z,94.48
2022-09-23T05:23:32.343Z,94.54
2022-09-23T05:24:29.839Z,94.53
2022-09-23T05:25:26.899Z,94.39
2022-09-23T05:26:28.437Z,94.14
2022-09-23T05:27:25.489Z,94.05
2022-09-23T05:28:22.513Z,93.47
2022-09-23T05:29:19.751Z,93.25
2022-09-23T05:30:18.994Z,93.23
2022-09-23T05:31:20.711Z,93.22
2022-09-23T05:32:17.855Z,93.16
2022-09-23T05:33:14.825Z,93.15
2022-09-23T05:34:14.691Z,93.21
2022-09-23T05:35:11.710Z,93.60
2022-09-23T05:36:08.616Z,93.23
2022-09-23T05:37:05.870Z,93.38
2022-09-23T05:38:02.805Z,93.09
2022-09-23T05:38:59.783Z,92.94
2022-09-23T05:39:56.868Z,93.59
2022-09-23T05:41:03.698Z,93.73
2022-09-23T05:42:00.619Z,92.97
2022-09-23T05:42:57.765Z,92.16
2022-09-23T05:43:55.161Z,92.25
2022-09-23T05:44:52.499Z,91.95
2022-09-23T05:45:49.461Z,91.85
2022-09-23T05:46:46.631Z,91.66
2022-09-23T05:47:44.165Z,90.11
2022-09-23T05:48:44.026Z,89.31
2022-09-23T05:49:58.646Z,88.47
2022-09-23T05:50:56.856Z,88.04
2022-09-23T05:51:53.854Z,87.87
2022-09-23T05:52:51.534Z,87.45
2022-09-23T05:53:48.859Z,87.42
2022-09-23T05:54:45.903Z,87.13
2022-09-23T05:55:43.094Z,86.71
2022-09-23T05:56:40.131Z,86.10
2022-09-23T05:57:37.073Z,86.04
2022-09-23T05:58:34.156Z,85.67
2022-09-23T05:59:31.288Z,85.62
2022-09-23T06:00:28.147Z,85.38
2022-09-23T06:01:26.601Z,84.79
2022-09-23T06:02:23.877Z,84.63
2022-09-23T06:03:21.063Z,84.32
2022-09-23T06:04:18.188Z,84.43
2022-09-23T06:05:16.236Z,84.00
2022-09-23T06:06:14.700Z,83.27
2022-09-23T06:07:11.955Z,82.68
2022-09-23T06:08:14.612Z,82.17
2022-09-23T06:09:13.754Z,81.69
2022-09-23T06:10:17.699Z,81.31
2022-09-23T06:11:14.788Z,80.84
2022-09-23T06:12:14.199Z,78.94
2022-09-23T06:13:13.935Z,77.30
2022-09-23T06:14:13.984Z,76.66
2022-09-23T06:15:12.314Z,76.50
2022-09-23T06:16:13.979Z,76.98
2022-09-23T06:17:10.945Z,77.04
2022-09-23T06:18:08.436Z,74.83
2022-09-23T06:19:08.448Z,74.94
2022-09-23T06:20:05.848Z,74.66
2022-09-23T06:21:03.342Z,74.82
2022-09-23T06:22:00.477Z,74.64
2022-09-23T06:23:08.876Z,74.51
2022-09-23T06:24:08.743Z,74.27
2022-09-23T06:25:06.081Z,73.92
2022-09-23T06:26:04.377Z,73.77
2022-09-23T06:27:01.526Z,73.45
2022-09-23T06:27:59.287Z,72.36
2022-09-23T06:28:58.941Z,71.14
2022-09-23T06:29:56.533Z,70.48
2022-09-23T06:30:58.191Z,70.65
2022-09-23T06:31:55.099Z,70.56
2022-09-23T06:32:52.826Z,70.12
2022-09-23T06:33:50.326Z,69.76
2022-09-23T06:34:51.866Z,69.68
2022-09-23T06:35:57.968Z,69.05
2022-09-23T06:36:56.174Z,69.17
2022-09-23T06:37:57.827Z,69.52
2022-09-23T06:38:54.971Z,69.50
2022-09-23T06:39:52.626Z,67.83
2022-09-23T06:40:54.614Z,67.77
2022-09-23T06:41:51.564Z,67.94
2022-09-23T06:42:52.238Z,67.55
2022-09-23T06:43:49.463Z,67.09
2022-09-23T06:44:47.220Z,66.59
2022-09-23T06:45:47.483Z,66.29
2022-09-23T06:46:47.569Z,65.89
2022-09-23T06:47:44.789Z,66.18
2022-09-23T06:48:46.027Z,66.18
2022-09-23T06:49:43.829Z,65.16
2022-09-23T06:50:40.771Z,64.31
2022-09-23T06:51:37.823Z,63.18
2022-09-23T06:52:35.384Z,63.29
2022-09-23T06:53:32.481Z,61.20
2022-09-23T06:54:32.741Z,60.01
2022-09-23T06:55:29.672Z,59.76
2022-09-23T06:56:26.543Z,59.42
2022-09-23T06:57:24.509Z,59.19
2022-09-23T06:58:23.388Z,59.82
2022-09-23T07:00:45.418Z,59.69
2022-09-23T07:01:44.073Z,58.97
2022-09-23T07:02:42.357Z,58.72
2022-09-23T07:03:39.433Z,58.79
2022-09-23T07:04:36.970Z,58.28
2022-09-23T07:05:37.736Z,58.30
2022-09-23T07:06:34.755Z,58.24
2022-09-23T07:07:31.993Z,58.33
2022-09-23T07:08:29.720Z,58.15
2022-09-23T07:09:28.444Z,58.64
2022-09-23T07:10:25.309Z,58.97
2022-09-23T07:11:22.739Z,58.68
2022-09-23T07:12:20.228Z,58.87
2022-09-23T07:13:17.183Z,59.59
2022-09-23T07:14:14.368Z,59.04
2022-09-23T07:15:11.346Z,58.64
2022-09-23T07:16:08.488Z,59.08
2022-09-23T07:17:08.030Z,60.14
2022-09-23T07:18:04.982Z,60.09
2022-09-23T07:19:02.848Z,60.12
2022-09-23T07:19:59.728Z,59.46
2022-09-23T07:21:00.321Z,60.24
2022-09-23T07:21:58.634Z,60.16
2022-09-23T07:22:55.867Z,60.63
2022-09-23T07:23:52.750Z,60.03
2022-09-23T07:24:49.723Z,60.20
2022-09-23T07:25:52.814Z,59.27
2022-09-23T07:26:51.888Z,59.30
2022-09-23T07:27:48.960Z,59.47
2022-09-23T07:28:46.203Z,59.41
2022-09-23T07:29:48.553Z,59.07
2022-09-23T07:30:59.249Z,58.79
2022-09-23T07:32:14.472Z,58.99
2022-09-23T07:33:25.222Z,59.24
2022-09-23T07:34:27.246Z,58.52
2022-09-23T07:35:24.131Z,58.36
2022-09-23T07:36:20.939Z,58.53
2022-09-23T07:37:18.041Z,58.62
2022-09-23T07:38:15.019Z,58.93
2022-09-23T07:39:12.346Z,59.02
2022-09-23T07:40:09.625Z,57.96
2022-09-23T07:41:09.033Z,57.84
2022-09-23T07:42:06.519Z,57.73
2022-09-23T07:43:05.403Z,57.19
2022-09-23T07:44:03.702Z,57.44
2022-09-23T07:45:00.693Z,56.80
2022-09-23T07:45:57.653Z,56.67
2022-09-23T07:47:03.447Z,55.90
2022-09-23T07:48:04.128Z,56.42
2022-09-23T07:49:02.277Z,56.40
2022-09-23T07:50:02.444Z,55.89
2022-09-23T07:51:02.182Z,56.33
2022-09-23T07:52:00.115Z,56.39
2022-09-23T07:58:12.643Z,56.66
2022-09-23T08:03:27.624Z,55.76
2022-09-23T08:05:51.582Z,55.56
2022-09-23T08:08:34.969Z,54.94
2022-09-23T08:18:40.290Z,54.01
2022-09-23T08:20:26.323Z,53.63
2022-09-23T08:22:17.454Z,53.96
2022-09-23T08:46:57.994Z,50.23
2022-09-23T09:14:52.164Z,43.95
2022-09-23T09:16:58.271Z,43.36
2022-09-23T09:19:47.230Z,41.87
2022-09-23T09:21:29.732Z,42.64
2022-09-23T09:23:23.189Z,42.58
2022-09-23T09:29:51.522Z,43.65
2022-09-23T09:31:22.248Z,43.56
2022-09-23T09:32:40.574Z,43.32
2022-09-23T09:34:32.228Z,43.55
2022-09-23T09:35:57.447Z,44.00
2022-09-23T09:37:21.359Z,43.21
2022-09-23T09:38:22.407Z,42.19
2022-09-23T09:39:32.027Z,42.22
2022-09-23T09:42:00.828Z,42.68
2022-09-23T09:43:02.469Z,42.55
2022-09-23T09:44:07.730Z,42.14
2022-09-23T09:45:12.586Z,41.50
2022-09-23T09:46:29.674Z,41.57
2022-09-23T09:47:59.220Z,41.98
2022-09-23T09:49:40.793Z,41.92
2022-09-23T09:51:07.798Z,42.33
2022-09-23T09:52:24.083Z,41.96
2022-09-23T09:53:41.945Z,41.72
2022-09-23T09:55:52.603Z,41.19
2022-09-23T09:56:52.957Z,41.58
2022-09-23T09:58:19.825Z,40.94
2022-09-23T09:59:37.991Z,40.60
2022-09-23T10:06:24.718Z,38.58
2022-09-23T10:07:59.231Z,37.58
2022-09-23T10:10:41.444Z,37.01
2022-09-23T10:11:44.730Z,37.29
2022-09-23T10:12:50.898Z,36.53
2022-09-23T10:14:24.826Z,35.35
2022-09-23T10:15:45.675Z,36.15
2022-09-23T10:16:52.398Z,36.54
2022-09-23T10:18:00.661Z,36.70
2022-09-23T10:19:14.919Z,37.25
2022-09-23T10:20:30.827Z,36.27
2022-09-23T10:21:48.850Z,35.95
2022-09-23T10:22:53.265Z,35.71
2022-09-23T10:24:06.594Z,35.28
2022-09-23T10:25:22.615Z,35.39
2022-09-23T10:26:48.487Z,34.89
2022-09-23T10:28:08.104Z,34.21
2022-09-23T10:29:58.285Z,34.66
2022-09-23T10:31:32.452Z,35.65
2022-09-23T10:34:51.123Z,36.29
2022-09-23T10:35:58.594Z,36.07
2022-09-23T10:37:17.934Z,36.07
2022-09-23T10:38:24.819Z,36.20
2022-09-23T10:39:44.902Z,35.29
2022-09-23T10:41:22.190Z,33.96
2022-09-23T10:45:43.329Z,33.51
2022-09-23T10:48:43.750Z,33.59
2022-09-23T10:50:37.656Z,33.58
2022-09-23T10:53:22.313Z,34.24
2022-09-23T10:54:40.309Z,34.67
2022-09-23T10:56:14.433Z,35.34
2022-09-23T10:57:49.214Z,34.34
2022-09-23T10:59:59.884Z,34.28
2022-09-23T11:01:52.266Z,34.48
2022-09-23T11:06:34.021Z,35.50
2022-09-23T11:07:43.611Z,34.80
2022-09-23T11:09:33.469Z,34.46
2022-09-23T11:11:05.282Z,33.99
2022-09-23T11:12:44.834Z,34.42
2022-09-23T11:13:55.080Z,34.04
2022-09-23T11:15:21.060Z,33.28
2022-09-23T11:17:21.120Z,33.17
2022-09-23T11:21:11.113Z,31.88
2022-09-23T11:27:31.316Z,30.36
2022-09-23T11:29:23.949Z,30.02
2022-09-23T11:30:50.548Z,29.61
2022-09-23T11:32:00.034Z,29.32
2022-09-23T11:33:31.160Z,29.41
2022-09-23T11:35:00.223Z,28.55
2022-09-23T11:36:09.858Z,29.40
2022-09-23T11:37:31.712Z,29.72
2022-09-23T11:38:43.490Z,28.82
2022-09-23T11:39:53.847Z,29.17
2022-09-23T11:41:02.033Z,29.20
2022-09-23T11:42:01.335Z,29.15
2022-09-23T11:43:11.593Z,28.74
2022-09-23T11:45:54.064Z,29.05
2022-09-23T11:47:21.363Z,29.40
2022-09-23T11:48:54.176Z,31.16
2022-09-23T11:50:38.262Z,31.79
2022-09-23T11:52:09.986Z,33.05
2022-09-23T11:59:40.073Z,36.49
2022-09-23T12:04:23.976Z,36.32
2022-09-23T12:06:10.962Z,34.77
2022-09-23T12:10:15.895Z,35.50
2022-09-23T12:11:50.527Z,36.69
2022-09-23T12:13:20.022Z,36.46
2022-09-23T12:15:08.056Z,36.83
2022-09-23T12:17:11.700Z,37.29
2022-09-23T12:19:08.037Z,38.61
2022-09-23T12:20:54.579Z,39.25
2022-09-23T12:22:52.198Z,39.39
2022-09-23T12:24:43.013Z,38.98
2022-09-23T12:25:55.102Z,38.27
2022-09-23T12:27:34.697Z,38.64
2022-09-23T12:31:16.883Z,38.47
2022-09-23T12:32:54.375Z,37.22
2022-09-23T12:34:51.699Z,37.20
2022-09-23T12:37:05.591Z,36.55
2022-09-23T12:40:19.403Z,38.56
2022-09-23T12:42:22.899Z,39.02
2022-09-23T12:43:53.903Z,39.44
2022-09-23T12:47:40.860Z,41.17
2022-09-23T12:49:39.691Z,41.42
2022-09-23T12:51:37.860Z,41.19
2022-09-23T12:57:57.965Z,40.45
2022-09-23T13:00:34.545Z,40.64
2022-09-23T13:02:24.499Z,40.85
2022-09-23T13:04:11.756Z,40.51
2022-09-23T13:08:06.192Z,39.47
2022-09-23T13:09:37.067Z,40.21
2022-09-23T13:11:06.255Z,39.52
2022-09-23T13:14:45.414Z,36.85
2022-09-23T13:15:55.803Z,36.33
2022-09-23T13:17:22.382Z,36.35
2022-09-23T13:18:51.107Z,35.87
2022-09-23T13:20:53.299Z,34.62
2022-09-23T13:29:11.652Z,33.38
2022-09-23T13:33:17.332Z,33.65
2022-09-23T13:37:53.016Z,36.18
2022-09-23T13:39:40.053Z,37.25
2022-09-23T13:40:47.043Z,37.15
2022-09-23T13:41:52.823Z,37.06
2022-09-23T13:45:59.172Z,36.87
2022-09-23T13:47:24.311Z,36.92
2022-09-23T13:49:19.920Z,37.16
2022-09-23T13:53:43.187Z,38.82
2022-09-23T14:00:35.964Z,40.20
2022-09-23T14:36:32.037Z,47.22
2022-09-23T14:42:39.809Z,47.04
2022-09-23T16:00:56.292Z,58.60
2022-09-23T16:11:01.583Z,58.82
2022-09-23T16:20:13.645Z,60.32
2022-09-23T16:21:41.507Z,60.95
2022-09-23T16:23:40.644Z,61.91
2022-09-23T16:35:04.461Z,63.91
2022-09-23T16:37:11.962Z,64.08
2022-09-23T16:38:52.842Z,64.65
2022-09-23T16:41:16.470Z,64.54
2022-09-23T16:44:24.088Z,66.34
2022-09-23T16:49:04.612Z,66.99
2022-09-23T16:50:22.006Z,67.36
2022-09-23T16:51:52.793Z,68.46
2022-09-23T16:53:15.808Z,68.77
2022-09-23T16:55:16.906Z,70.23
2022-09-23T17:02:05.981Z,72.43
2022-09-23T17:05:13.839Z,73.63
2022-09-23T17:06:50.414Z,73.95
2022-09-23T17:08:17.183Z,74.28
2022-09-23T17:18:29.322Z,76.48
2022-09-23T17:27:50.933Z,79.51
2022-09-23T17:31:43.025Z,81.22
2022-09-23T17:33:44.205Z,81.41
2022-09-23T17:35:09.326Z,82.09
2022-09-23T17:36:19.577Z,82.02
2022-09-23T17:37:53.642Z,82.21
2022-09-23T17:39:36.325Z,82.62
2022-09-23T17:49:05.025Z,87.17
2022-09-23T17:51:05.227Z,87.66
2022-09-23T17:57:13.632Z,89.21
2022-09-23T18:01:12.766Z,89.03
2022-09-23T18:02:15.441Z,89.55
2022-09-23T18:06:18.533Z,91.03
2022-09-23T18:09:19.764Z,91.52
2022-09-23T18:10:40.876Z,91.53
2022-09-23T18:14:24.026Z,92.31
2022-09-23T18:16:46.469Z,92.14
2022-09-23T18:19:54.453Z,92.50
2022-09-23T18:21:09.201Z,92.48
2022-09-23T18:23:26.190Z,92.19
2022-09-23T18:24:41.392Z,93.02
2022-09-23T18:26:05.745Z,92.84
2022-09-23T18:29:40.775Z,93.04
2022-09-23T18:31:28.796Z,92.92
2022-09-23T18:32:56.291Z,92.82
2022-09-23T18:34:11.057Z,92.80
2022-09-23T18:35:32.313Z,93.19
2022-09-23T18:36:57.892Z,93.89
2022-09-23T18:38:05.492Z,93.68
2022-09-23T18:40:38.215Z,93.79
2022-09-23T18:41:43.433Z,93.30
2022-09-23T18:42:49.224Z,93.42
2022-09-23T18:44:14.084Z,93.80
2022-09-23T18:45:19.151Z,93.37
2022-09-23T18:46:30.974Z,94.19
2022-09-23T18:48:11.837Z,93.76
2022-09-23T18:49:38.684Z,95.48
2022-09-23T18:50:45.770Z,95.04
2022-09-23T18:52:44.744Z,95.27
2022-09-23T18:54:07.591Z,94.99
2022-09-23T18:55:26.960Z,95.22
2022-09-23T18:56:40.174Z,95.75
2022-09-23T18:58:15.775Z,95.77
2022-09-23T18:59:37.335Z,96.09
2022-09-23T19:01:19.584Z,96.59
2022-09-23T19:02:43.756Z,97.14
2022-09-23T19:04:40.704Z,97.54
2022-09-23T19:06:03.145Z,98.79
2022-09-23T19:08:00.845Z,98.86
2022-09-23T19:09:37.986Z,99.20
2022-09-23T19:11:14.524Z,100.00
2022-09-23T19:12:42.273Z,100.00
2022-09-23T19:13:43.546Z,100.00
2022-09-23T19:18:25.296Z,100.00
2022-09-23T19:21:46.629Z,100.00
2022-09-23T19:26:45.543Z,100.00
2022-09-23T19:34:54.442Z,100.00
2022-09-23T19:36:22.608Z,100.00
2022-09-23T19:40:02.839Z,100.00
2022-09-23T19:44:05.415Z,100.00
2022-09-23T19:49:30.329Z,100.00
2022-09-23T19:51:21.998Z,100.00
2022-09-23T19:54:28.773Z,100.00
2022-09-23T20:00:16.344Z,100.00
2022-09-23T20:02:22.480Z,100.00
2022-09-23T20:08:33.156Z,100.00
2022-09-23T20:15:21.145Z,100.00
2022-09-23T20:18:52.990Z,100.00
2022-09-23T20:22:36.390Z,100.00
2022-09-23T20:24:24.608Z,100.00
2022-09-23T20:36:33.790Z,100.00
2022-09-23T20:37:44.016Z,100.00
2022-09-23T20:42:31.085Z,100.00
2022-09-23T20:45:56.327Z,100.00
2022-09-23T20:47:38.152Z,100.00
2022-09-23T20:48:41.499Z,100.00
2022-09-23T20:51:39.237Z,100.00
2022-09-23T20:53:19.905Z,100.00
2022-09-23T20:55:42.829Z,100.00
2022-09-23T20:58:35.778Z,100.00
2022-09-23T21:01:23.009Z,100.00
2022-09-23T21:02:49.506Z,100.00
2022-09-23T21:04:26.589Z,100.00
2022-09-23T21:06:23.454Z,100.00
2022-09-23T21:09:44.359Z,100.00
2022-09-23T21:10:13.321Z,100.00
2022-09-23T21:14:44.585Z,100.00
2022-09-23T21:15:58.735Z,100.00
2022-09-23T21:17:50.730Z,100.00
2022-09-23T21:18:58.051Z,100.00
2022-09-23T21:20:20.022Z,100.00
2022-09-23T21:21:42.029Z,100.00
2022-09-23T21:25:16.098Z,100.00
2022-09-23T21:26:14.171Z,100.00
2022-09-23T21:29:19.699Z,100.00
2022-09-23T21:32:38.125Z,100.00
2022-09-23T21:37:42.850Z,100.00
2022-09-23T21:45:32.408Z,100.00
2022-09-23T21:50:27.938Z,100.00
2022-09-23T21:56:44.050Z,100.00
2022-09-23T21:58:19.658Z,100.00
2022-09-23T22:00:14.312Z,100.00
2022-09-23T22:09:48.637Z,100.00
2022-09-23T22:11:57.609Z,100.00
2022-09-23T22:18:23.214Z,100.00
2022-09-23T22:20:47.853Z,100.00
2022-09-23T22:22:20.099Z,100.00
2022-09-23T22:23:40.439Z,100.00
2022-09-23T22:29:33.605Z,100.00
2022-09-23T22:31:39.720Z,100.00
2022-09-23T22:33:22.759Z,100.00
2022-09-23T22:35:36.178Z,100.00
2022-09-23T22:38:34.937Z,100.00
2022-09-23T22:39:18.211Z,100.00
2022-09-23T22:41:40.317Z,100.00
2022-09-23T22:43:48.953Z,100.00
2022-09-23T22:46:38.728Z,100.00
2022-09-23T22:50:55.386Z,100.00
2022-09-23T22:59:41.942Z,100.00
2022-09-23T23:08:13.626Z,100.00
2022-09-23T23:09:18.004Z,100.00
2022-09-23T23:13:20.698Z,100.00
2022-09-23T23:14:51.750Z,100.00
2022-09-23T23:16:27.946Z,100.00
2022-09-23T23:20:02.457Z,100.00
2022-09-23T23:24:05.911Z,100.00
2022-09-23T23:24:45.150Z,100.00
2022-09-23T23:26:30.791Z,100.00
2022-09-23T23:34:18.880Z,100.00
2022-09-23T23:41:50.422Z,100.00
2022-09-23T23:58:57.021Z,100.00
